createdAt,value
2023-09-06T00:01:28.832Z,101441.38
2023-09-06T00:03:59.418Z,101443.53
2023-09-06T00:06:29.241Z,101442.31
2023-09-06T00:09:00.270Z,101442.91
2023-09-06T00:11:30.018Z,101447.84
2023-09-06T00:13:59.586Z,101440.28
2023-09-06T00:16:31.851Z,101446.88
2023-09-06T00:19:03.566Z,101442.91
2023-09-06T00:21:36.372Z,101440.25
2023-09-06T00:24:07.176Z,101440.25
2023-09-06T00:26:36.772Z,101442.75
2023-09-06T00:29:08.538Z,101441.66
2023-09-06T00:31:40.758Z,101440.22
2023-09-06T00:34:11.297Z,101444.28
2023-09-06T00:36:41.019Z,101435.88
2023-09-06T00:39:11.396Z,101441.63
2023-09-06T00:41:43.032Z,101434.06
2023-09-06T00:44:12.608Z,101431.56
2023-09-06T00:46:44.810Z,101432.63
2023-09-06T00:49:14.598Z,101431.09
2023-09-06T00:51:44.283Z,101442.94
2023-09-06T00:54:15.674Z,101434.44
2023-09-06T00:56:45.332Z,101437.91
2023-09-06T00:59:15.245Z,101439.56
2023-09-06T01:01:47.749Z,101441.81
2023-09-06T01:04:17.900Z,101439.06
2023-09-06T01:06:52.043Z,101441.22
2023-09-06T01:09:22.014Z,101434.63
2023-09-06T01:11:51.588Z,101438.47
2023-09-06T01:14:21.167Z,101433.44
2023-09-06T01:16:55.891Z,101441.88
2023-09-06T01:19:29.636Z,101437.69
2023-09-06T01:22:11.874Z,101437.09
2023-09-06T01:24:44.204Z,101437.56
2023-09-06T01:27:14.802Z,101436.72
2023-09-06T01:29:44.648Z,101436.34
2023-09-06T01:32:14.641Z,101435.97
2023-09-06T01:34:44.260Z,101439.56
2023-09-06T01:37:13.921Z,101438.97
2023-09-06T01:39:46.112Z,101433.47
2023-09-06T01:42:15.697Z,101430.09
2023-09-06T01:44:45.316Z,101436.91
2023-09-06T01:47:15.588Z,101436.91
2023-09-06T01:49:46.902Z,101441.81
2023-09-06T01:55:06.199Z,101439.75
2023-09-06T01:57:35.986Z,101444.38
2023-09-06T02:00:20.132Z,101446.75
2023-09-06T02:02:50.160Z,101441.72
2023-09-06T02:05:20.026Z,101440.25
2023-09-06T02:07:50.203Z,101442.88
2023-09-06T02:10:22.390Z,101447.97
2023-09-06T02:12:52.081Z,101448.81
2023-09-06T02:18:18.453Z,101447.00
2023-09-06T02:20:50.407Z,101458.19
2023-09-06T02:23:20.188Z,101457.59
2023-09-06T02:25:52.580Z,101461.97
2023-09-06T02:28:22.279Z,101452.69
2023-09-06T02:30:51.950Z,101450.19
2023-09-06T02:33:21.954Z,101456.53
2023-09-06T02:35:52.132Z,101458.44
2023-09-06T02:38:21.731Z,101468.59
2023-09-06T02:40:54.286Z,101466.09
2023-09-06T02:43:24.387Z,101465.25
2023-09-06T02:45:56.023Z,101459.75
2023-09-06T02:48:28.695Z,101467.59
2023-09-06T02:51:00.100Z,101462.19
2023-09-06T02:53:32.515Z,101465.13
2023-09-06T02:56:05.026Z,101467.88
2023-09-06T02:58:38.654Z,101463.69
2023-09-06T03:01:21.230Z,101473.84
2023-09-06T03:03:52.746Z,101476.22
2023-09-06T03:06:34.383Z,101476.22
2023-09-06T03:09:10.293Z,101473.47
2023-09-06T03:11:43.413Z,101477.50
2023-09-06T03:14:14.209Z,101477.94
2023-09-06T03:16:43.929Z,101476.28
2023-09-06T03:19:15.352Z,101483.88
2023-09-06T03:21:45.760Z,101484.34
2023-09-06T03:24:15.892Z,101473.66
2023-09-06T03:26:48.773Z,101483.97
2023-09-06T03:29:21.630Z,101481.06
2023-09-06T03:31:54.746Z,101482.75
2023-09-06T03:34:26.263Z,101495.63
2023-09-06T03:36:58.642Z,101487.16
2023-09-06T03:39:30.557Z,101484.66
2023-09-06T03:42:04.232Z,101487.84
2023-09-06T03:44:34.635Z,101495.47
2023-09-06T03:47:06.425Z,101491.03
2023-09-06T03:49:37.661Z,101492.34
2023-09-06T03:52:08.229Z,101495.53
2023-09-06T03:54:38.235Z,101493.44
2023-09-06T03:57:14.370Z,101488.41
2023-09-06T03:59:46.256Z,101484.81
2023-09-06T04:02:16.604Z,101491.41
2023-09-06T04:04:47.479Z,101493.28
2023-09-06T04:07:17.069Z,101485.97
2023-09-06T04:09:46.619Z,101489.72
2023-09-06T04:12:19.114Z,101489.97
2023-09-06T04:14:48.562Z,101488.28
2023-09-06T04:17:18.746Z,101491.47
2023-09-06T04:19:48.424Z,101490.88
2023-09-06T04:22:18.109Z,101484.97
2023-09-06T04:24:47.715Z,101483.97
2023-09-06T04:27:21.712Z,101494.25
2023-09-06T04:29:51.706Z,101491.97
2023-09-06T04:32:21.662Z,101490.66
2023-09-06T04:34:52.156Z,101489.06
2023-09-06T04:37:22.077Z,101494.75
2023-09-06T04:39:54.630Z,101492.00
2023-09-06T04:42:27.296Z,101496.94
2023-09-06T04:44:56.859Z,101503.44
2023-09-06T04:47:26.705Z,101504.69
2023-09-06T04:49:56.732Z,101503.81
2023-09-06T04:52:27.803Z,101508.47
2023-09-06T04:54:58.382Z,101507.41
2023-09-06T04:57:31.495Z,101507.19
2023-09-06T05:00:01.854Z,101506.13
2023-09-06T05:02:31.433Z,101502.53
2023-09-06T05:05:01.046Z,101513.50
2023-09-06T05:07:31.430Z,101506.38
2023-09-06T05:10:04.913Z,101514.16
2023-09-06T05:12:40.209Z,101504.22
2023-09-06T05:15:13.799Z,101505.28
2023-09-06T05:17:44.396Z,101515.59
2023-09-06T05:20:28.913Z,101516.22
2023-09-06T05:23:05.628Z,101505.06
2023-09-06T05:25:37.547Z,101512.84
2023-09-06T05:28:12.336Z,101523.59
2023-09-06T05:30:46.686Z,101525.28
2023-09-06T05:33:19.202Z,101521.69
2023-09-06T05:35:48.930Z,101528.03
2023-09-06T05:38:20.722Z,101528.44
2023-09-06T05:40:51.705Z,101538.75
2023-09-06T05:43:32.856Z,101531.19
2023-09-06T05:46:02.702Z,101536.22
2023-09-06T05:48:32.487Z,101530.53
2023-09-06T05:51:03.359Z,101538.41
2023-09-06T05:53:33.236Z,101540.91
2023-09-06T05:56:02.910Z,101546.38
2023-09-06T05:58:39.357Z,101553.31
2023-09-06T06:03:54.456Z,101548.69
2023-09-06T06:06:24.228Z,101553.56
2023-09-06T06:08:54.653Z,101552.47
2023-09-06T06:11:26.168Z,101554.41
2023-09-06T06:14:08.700Z,101555.03
2023-09-06T06:16:42.323Z,101555.41
2023-09-06T06:19:14.092Z,101562.16
2023-09-06T06:21:44.605Z,101557.31
2023-09-06T06:24:16.462Z,101553.06
2023-09-06T06:26:46.329Z,101560.63
2023-09-06T06:29:18.712Z,101562.91
2023-09-06T06:31:49.280Z,101559.72
2023-09-06T06:34:19.806Z,101560.72
2023-09-06T06:36:49.592Z,101562.81
2023-09-06T06:39:19.287Z,101560.22
2023-09-06T06:41:48.893Z,101563.16
2023-09-06T06:44:21.129Z,101568.19
2023-09-06T06:46:50.929Z,101565.00
2023-09-06T06:49:21.140Z,101569.81
2023-09-06T06:51:50.704Z,101575.44
2023-09-06T06:54:21.187Z,101573.09
2023-09-06T06:56:50.914Z,101573.50
2023-09-06T06:59:23.145Z,101573.88
2023-09-06T07:01:52.749Z,101579.16
2023-09-06T07:04:22.341Z,101576.78
2023-09-06T07:06:52.025Z,101575.50
2023-09-06T07:09:21.776Z,101575.06
2023-09-06T07:11:51.734Z,101576.50
2023-09-06T07:14:24.477Z,101576.91
2023-09-06T07:16:54.288Z,101572.84
2023-09-06T07:19:24.170Z,101587.78
2023-09-06T07:21:53.783Z,101576.38
2023-09-06T07:24:23.402Z,101584.41
2023-09-06T07:26:53.028Z,101579.28
2023-09-06T07:29:25.216Z,101579.28
2023-09-06T07:31:54.833Z,101583.50
2023-09-06T07:34:24.488Z,101584.09
2023-09-06T07:36:54.134Z,101583.63
2023-09-06T07:39:24.941Z,101586.16
2023-09-06T07:41:56.512Z,101586.56
2023-09-06T07:44:30.913Z,101586.31
2023-09-06T07:47:00.729Z,101591.34
2023-09-06T07:49:34.107Z,101584.56
2023-09-06T07:52:06.647Z,101581.59
2023-09-06T07:54:36.173Z,101588.31
2023-09-06T07:57:06.213Z,101587.00
2023-09-06T07:59:39.661Z,101591.22
2023-09-06T08:02:09.604Z,101594.56
2023-09-06T08:04:39.430Z,101593.28
2023-09-06T08:07:09.632Z,101591.97
2023-09-06T08:09:39.369Z,101595.94
2023-09-06T08:12:09.839Z,101596.56
2023-09-06T08:14:43.472Z,101598.22
2023-09-06T08:17:14.102Z,101602.19
2023-09-06T08:19:43.779Z,101598.38
2023-09-06T08:22:13.565Z,101594.06
2023-09-06T08:24:43.159Z,101600.81
2023-09-06T08:27:13.062Z,101599.75
2023-09-06T08:29:45.335Z,101597.97
2023-09-06T08:32:15.076Z,101589.25
2023-09-06T08:34:44.716Z,101595.97
2023-09-06T08:37:14.712Z,101596.81
2023-09-06T08:39:45.203Z,101604.41
2023-09-06T08:42:14.884Z,101608.13
2023-09-06T08:44:51.896Z,101604.31
2023-09-06T08:47:22.705Z,101611.84
2023-09-06T08:49:56.118Z,101611.38
2023-09-06T08:52:25.927Z,101605.41
2023-09-06T08:54:56.341Z,101601.97
2023-09-06T08:57:30.235Z,101588.81
2023-09-06T09:00:03.305Z,101596.13
2023-09-06T09:02:32.989Z,101594.00
2023-09-06T09:05:17.538Z,101601.78
2023-09-06T09:07:50.966Z,101601.91
2023-09-06T09:10:23.127Z,101603.59
2023-09-06T09:12:56.043Z,101602.88
2023-09-06T09:15:29.412Z,101604.09
2023-09-06T09:18:02.257Z,101602.19
2023-09-06T09:20:35.823Z,101604.84
2023-09-06T09:23:08.442Z,101602.19
2023-09-06T09:25:38.280Z,101604.47
2023-09-06T09:28:08.789Z,101612.25
2023-09-06T09:30:42.643Z,101604.25
2023-09-06T09:33:12.649Z,101595.16
2023-09-06T09:35:42.588Z,101608.81
2023-09-06T09:38:14.404Z,101600.41
2023-09-06T09:40:52.218Z,101602.03
2023-09-06T09:43:23.459Z,101597.94
2023-09-06T09:45:55.922Z,101596.41
2023-09-06T09:48:33.197Z,101600.94
2023-09-06T09:51:06.196Z,101603.59
2023-09-06T09:53:37.137Z,101606.47
2023-09-06T09:56:11.047Z,101598.78
2023-09-06T09:58:41.986Z,101603.47
2023-09-06T10:01:14.871Z,101596.38
2023-09-06T10:03:47.195Z,101592.91
2023-09-06T10:06:17.733Z,101598.53
2023-09-06T10:08:50.026Z,101583.91
2023-09-06T10:11:21.605Z,101585.00
2023-09-06T10:13:51.816Z,101585.31
2023-09-06T10:16:24.465Z,101585.22
2023-09-06T10:18:54.542Z,101584.97
2023-09-06T10:21:24.764Z,101581.72
2023-09-06T10:23:54.567Z,101577.84
2023-09-06T10:26:31.114Z,101573.78
2023-09-06T10:29:01.160Z,101577.97
2023-09-06T10:31:50.535Z,101578.63
2023-09-06T10:34:21.966Z,101577.00
2023-09-06T10:36:56.019Z,101579.19
2023-09-06T10:39:27.322Z,101576.50
2023-09-06T10:42:32.850Z,101584.16
2023-09-06T10:45:15.565Z,101578.63
2023-09-06T10:47:47.896Z,101581.25
2023-09-06T10:50:22.537Z,101571.13
2023-09-06T10:52:57.211Z,101589.00
2023-09-06T10:55:29.155Z,101585.69
2023-09-06T10:58:07.773Z,101585.94
2023-09-06T11:00:38.116Z,101593.13
2023-09-06T11:03:23.338Z,101588.69
2023-09-06T11:05:59.757Z,101589.47
2023-09-06T11:08:31.592Z,101586.19
2023-09-06T11:11:06.304Z,101585.59
2023-09-06T11:13:36.617Z,101584.34
2023-09-06T11:16:07.569Z,101580.56
2023-09-06T11:18:49.717Z,101590.03
2023-09-06T11:21:21.103Z,101585.56
2023-09-06T11:23:51.853Z,101582.59
2023-09-06T11:26:21.926Z,101585.56
2023-09-06T11:28:51.858Z,101578.69
2023-09-06T11:31:21.340Z,101577.78
2023-09-06T11:33:56.687Z,101581.91
2023-09-06T11:36:31.868Z,101577.97
2023-09-06T11:39:12.827Z,101578.34
2023-09-06T11:41:42.858Z,101579.91
2023-09-06T11:44:14.450Z,101586.09
2023-09-06T11:46:45.283Z,101582.06
2023-09-06T11:49:22.667Z,101584.00
2023-09-06T11:51:55.395Z,101576.59
2023-09-06T11:54:29.676Z,101575.28
2023-09-06T11:56:59.267Z,101580.78
2023-09-06T11:59:33.534Z,101578.41
2023-09-06T12:02:05.059Z,101576.19
2023-09-06T12:04:37.219Z,101576.50
2023-09-06T12:07:09.310Z,101573.75
2023-09-06T12:09:40.012Z,101582.88
2023-09-06T12:12:10.895Z,101572.56
2023-09-06T12:14:40.526Z,101575.56
2023-09-06T12:17:10.416Z,101576.72
2023-09-06T12:19:42.604Z,101573.44
2023-09-06T12:22:15.610Z,101572.97
2023-09-06T12:24:47.630Z,101568.63
2023-09-06T12:27:19.818Z,101567.53
2023-09-06T12:29:49.439Z,101562.00
2023-09-06T12:32:19.023Z,101558.38
2023-09-06T12:34:51.176Z,101545.94
2023-09-06T12:37:22.138Z,101550.97
2023-09-06T12:39:51.723Z,101543.19
2023-09-06T12:42:21.430Z,101544.88
2023-09-06T12:44:51.712Z,101538.56
2023-09-06T12:47:21.583Z,101537.50
2023-09-06T12:49:55.124Z,101542.31
2023-09-06T12:52:24.806Z,101534.00
2023-09-06T12:54:56.108Z,101538.47
2023-09-06T12:57:25.748Z,101527.69
2023-09-06T12:59:55.771Z,101526.31
2023-09-06T13:02:25.524Z,101518.53
2023-09-06T13:04:58.004Z,101524.72
2023-09-06T13:07:27.591Z,101520.81
2023-09-06T13:09:57.204Z,101523.03
2023-09-06T13:12:27.341Z,101520.00
2023-09-06T13:14:57.068Z,101522.22
2023-09-06T13:17:27.031Z,101517.81
2023-09-06T13:19:59.520Z,101514.22
2023-09-06T13:22:28.904Z,101520.91
2023-09-06T13:24:58.483Z,101511.22
2023-09-06T13:27:28.094Z,101511.19
2023-09-06T13:29:58.529Z,101524.31
2023-09-06T13:32:28.248Z,101516.28
2023-09-06T13:35:00.571Z,101512.09
2023-09-06T13:37:31.062Z,101512.41
2023-09-06T13:40:00.648Z,101504.59
2023-09-06T13:42:32.480Z,101510.47
2023-09-06T13:45:02.236Z,101500.19
2023-09-06T13:47:31.868Z,101503.84
2023-09-06T13:50:05.320Z,101517.16
2023-09-06T13:52:35.003Z,101503.00
2023-09-06T13:55:05.208Z,101503.56
2023-09-06T13:57:34.862Z,101492.16
2023-09-06T14:00:06.811Z,101497.16
2023-09-06T14:02:36.904Z,101487.16
2023-09-06T14:05:10.099Z,101488.56
2023-09-06T14:07:39.722Z,101494.41
2023-09-06T14:10:10.172Z,101487.44
2023-09-06T14:12:40.548Z,101487.44
2023-09-06T14:15:11.397Z,101488.81
2023-09-06T14:17:41.082Z,101486.63
2023-09-06T14:20:14.651Z,101490.78
2023-09-06T14:22:44.308Z,101493.25
2023-09-06T14:25:13.949Z,101482.16
2023-09-06T14:27:43.567Z,101479.66
2023-09-06T14:30:14.965Z,101479.69
2023-09-06T14:32:44.773Z,101478.31
2023-09-06T14:35:17.166Z,101479.38
2023-09-06T14:37:46.823Z,101469.97
2023-09-06T14:40:16.643Z,101485.78
2023-09-06T14:42:46.439Z,101484.09
2023-09-06T14:45:16.751Z,101483.25
2023-09-06T14:47:46.809Z,101476.59
2023-09-06T14:50:19.022Z,101483.56
2023-09-06T14:52:48.584Z,101471.59
2023-09-06T14:55:18.342Z,101472.44
2023-09-06T14:57:47.983Z,101469.09
2023-09-06T15:00:18.852Z,101476.03
2023-09-06T15:02:49.367Z,101473.25
2023-09-06T15:05:22.821Z,101463.53
2023-09-06T15:07:52.749Z,101463.53
2023-09-06T15:10:22.378Z,101466.59
2023-09-06T15:12:52.038Z,101464.34
2023-09-06T15:15:21.698Z,101466.28
2023-09-06T15:17:51.386Z,101462.16
2023-09-06T15:20:23.563Z,101456.59
2023-09-06T15:22:53.193Z,101462.97
2023-09-06T15:25:25.459Z,101465.47
2023-09-06T15:27:56.322Z,101462.13
2023-09-06T15:30:27.361Z,101462.41
2023-09-06T15:32:57.291Z,101456.84
2023-09-06T15:35:32.825Z,101457.09
2023-09-06T15:38:04.805Z,101455.72
2023-09-06T15:40:34.965Z,101457.66
2023-09-06T15:43:05.928Z,101452.94
2023-09-06T15:45:35.668Z,101451.56
2023-09-06T15:48:06.201Z,101452.03
2023-09-06T15:50:38.774Z,101452.91
2023-09-06T15:53:08.460Z,101448.16
2023-09-06T15:55:38.846Z,101444.59
2023-09-06T15:58:08.479Z,101448.13
2023-09-06T16:00:38.077Z,101449.81
2023-09-06T16:03:08.957Z,101453.44
2023-09-06T16:05:41.633Z,101447.59
2023-09-06T16:08:11.284Z,101446.78
2023-09-06T16:10:42.800Z,101452.31
2023-09-06T16:13:12.393Z,101458.09
2023-09-06T16:15:41.969Z,101453.44
2023-09-06T16:18:11.678Z,101454.25
2023-09-06T16:20:47.389Z,101453.69
2023-09-06T16:23:16.965Z,101449.22
2023-09-06T16:25:46.692Z,101449.22
2023-09-06T16:28:17.310Z,101461.97
2023-09-06T16:30:47.020Z,101458.66
2023-09-06T16:33:16.976Z,101458.06
2023-09-06T16:35:49.160Z,101455.56
2023-09-06T16:38:19.328Z,101463.34
2023-09-06T16:40:48.937Z,101461.63
2023-09-06T16:43:18.543Z,101458.03
2023-09-06T16:45:48.299Z,101464.69
2023-09-06T16:48:17.993Z,101456.91
2023-09-06T16:50:50.235Z,101450.81
2023-09-06T16:53:20.570Z,101452.69
2023-09-06T16:55:50.518Z,101454.09
2023-09-06T16:58:23.097Z,101456.28
2023-09-06T17:00:53.375Z,101461.31
2023-09-06T17:03:23.029Z,101459.88
2023-09-06T17:05:55.220Z,101454.34
2023-09-06T17:08:25.364Z,101462.66
2023-09-06T17:10:54.986Z,101462.06
2023-09-06T17:13:27.198Z,101471.47
2023-09-06T17:15:57.566Z,101467.31
2023-09-06T17:18:30.723Z,101463.38
2023-09-06T17:21:07.438Z,101472.56
2023-09-06T17:23:42.124Z,101465.84
2023-09-06T17:26:16.974Z,101471.38
2023-09-06T17:28:48.709Z,101477.44
2023-09-06T17:31:18.617Z,101474.69
2023-09-06T17:33:49.673Z,101474.38
2023-09-06T17:36:26.572Z,101475.22
2023-09-06T17:38:56.577Z,101471.28
2023-09-06T17:41:27.253Z,101473.47
2023-09-06T17:43:56.898Z,101474.84
2023-09-06T17:46:30.110Z,101472.06
2023-09-06T17:49:02.816Z,101479.78
2023-09-06T17:51:35.807Z,101480.59
2023-09-06T17:54:05.974Z,101480.88
2023-09-06T17:56:37.433Z,101474.19
2023-09-06T17:59:08.598Z,101485.81
2023-09-06T18:01:38.637Z,101487.19
2023-09-06T18:06:55.310Z,101490.13
2023-09-06T18:09:27.168Z,101485.97
2023-09-06T18:11:56.843Z,101486.75
2023-09-06T18:14:26.591Z,101493.66
2023-09-06T18:16:57.113Z,101490.00
2023-09-06T18:19:27.334Z,101495.84
2023-09-06T18:21:59.844Z,101499.69
2023-09-06T18:24:30.721Z,101502.16
2023-09-06T18:27:07.911Z,101505.69
2023-09-06T18:29:38.390Z,101505.13
2023-09-06T18:32:09.530Z,101503.72
2023-09-06T18:34:39.152Z,101513.41
2023-09-06T18:37:11.988Z,101517.78
2023-09-06T18:39:42.315Z,101518.28
2023-09-06T18:42:11.922Z,101517.72
2023-09-06T18:44:41.876Z,101519.91
2023-09-06T18:47:12.238Z,101521.53
2023-09-06T18:49:41.939Z,101525.69
2023-09-06T18:52:14.176Z,101515.94
2023-09-06T18:54:43.762Z,101516.72
2023-09-06T18:57:14.802Z,101520.59
2023-09-06T18:59:44.464Z,101513.66
2023-09-06T19:02:14.104Z,101516.63
2023-09-06T19:04:46.074Z,101517.16
2023-09-06T19:07:18.263Z,101519.09
2023-09-06T19:09:48.835Z,101519.63
2023-09-06T19:12:18.640Z,101510.16
2023-09-06T19:14:48.354Z,101512.34
2023-09-06T19:17:18.240Z,101511.50
2023-09-06T19:19:47.886Z,101514.53
2023-09-06T19:22:20.059Z,101515.88
2023-09-06T19:24:49.590Z,101514.19
2023-09-06T19:27:19.252Z,101510.03
2023-09-06T19:29:48.874Z,101519.16
2023-09-06T19:32:18.731Z,101519.69
2023-09-06T19:34:49.896Z,101516.34
2023-09-06T19:37:23.232Z,101529.00
2023-09-06T19:39:53.342Z,101520.38
2023-09-06T19:42:23.124Z,101527.28
2023-09-06T19:44:53.567Z,101522.22
2023-09-06T19:47:23.229Z,101525.25
2023-09-06T19:49:53.201Z,101529.22
2023-09-06T19:52:26.513Z,101520.94
2023-09-06T19:55:01.969Z,101527.97
2023-09-06T19:57:31.893Z,101521.72
2023-09-06T20:00:02.256Z,101516.84
2023-09-06T20:02:42.511Z,101517.78
2023-09-06T20:05:12.430Z,101520.22
2023-09-06T20:07:44.897Z,101528.00
2023-09-06T20:10:14.969Z,101533.41
2023-09-06T20:12:45.243Z,101523.94
2023-09-06T20:15:16.207Z,101520.56
2023-09-06T20:17:46.234Z,101517.53
2023-09-06T20:20:16.021Z,101524.34
2023-09-06T20:22:48.253Z,101531.97
2023-09-06T20:25:18.035Z,101528.34
2023-09-06T20:27:47.611Z,101531.97
2023-09-06T20:30:17.397Z,101534.56
2023-09-06T20:32:47.153Z,101537.63
2023-09-06T20:35:17.143Z,101539.75
2023-09-06T20:37:49.498Z,101528.00
2023-09-06T20:40:19.139Z,101527.81
2023-09-06T20:42:49.297Z,101531.34
2023-09-06T20:45:20.971Z,101532.66
2023-09-06T20:47:51.159Z,101532.41
2023-09-06T20:50:22.206Z,101526.31
2023-09-06T20:52:54.451Z,101536.50
2023-09-06T20:55:24.055Z,101530.28
2023-09-06T20:57:53.725Z,101540.00
2023-09-06T21:00:23.964Z,101538.56
2023-09-06T21:02:53.660Z,101541.94
2023-09-06T21:05:23.342Z,101542.25
2023-09-06T21:07:55.701Z,101545.16
2023-09-06T21:10:25.598Z,101546.34
2023-09-06T21:12:55.236Z,101546.75
2023-09-06T21:15:24.903Z,101550.69
2023-09-06T21:17:56.066Z,101546.00
2023-09-06T21:20:26.660Z,101553.56
2023-09-06T21:22:58.887Z,101551.16
2023-09-06T21:25:28.552Z,101563.03
2023-09-06T21:27:58.143Z,101560.00
2023-09-06T21:30:27.678Z,101559.78
2023-09-06T21:32:57.227Z,101566.09
2023-09-06T21:35:26.785Z,101563.63
2023-09-06T21:37:58.992Z,101570.22
2023-09-06T21:40:28.961Z,101574.56
2023-09-06T21:43:14.610Z,101570.13
2023-09-06T21:45:47.446Z,101565.31
2023-09-06T21:48:17.793Z,101572.75
2023-09-06T21:50:50.498Z,101575.78
2023-09-06T21:53:22.711Z,101571.81
2023-09-06T21:55:52.828Z,101569.06
2023-09-06T21:58:22.456Z,101568.47
2023-09-06T22:01:10.434Z,101571.97
2023-09-06T22:03:58.944Z,101576.91
2023-09-06T22:06:47.504Z,101572.72
2023-09-06T22:09:38.585Z,101583.03
2023-09-06T22:12:26.999Z,101582.19
2023-09-06T22:14:56.939Z,101578.84
2023-09-06T22:17:26.649Z,101583.13
2023-09-06T22:19:56.445Z,101583.97
2023-09-06T22:22:26.101Z,101583.88
2023-09-06T22:24:58.291Z,101591.69
2023-09-06T22:27:28.025Z,101590.84
2023-09-06T22:29:57.794Z,101595.16
2023-09-06T22:32:27.407Z,101593.00
2023-09-06T22:34:57.766Z,101588.47
2023-09-06T22:37:29.376Z,101593.00
2023-09-06T22:40:04.555Z,101600.59
2023-09-06T22:42:34.746Z,101599.25
2023-09-06T22:45:04.297Z,101596.72
2023-09-06T22:47:33.896Z,101592.78
2023-09-06T22:50:03.460Z,101597.69
2023-09-06T22:52:33.138Z,101590.53
2023-09-06T22:55:05.398Z,101595.69
2023-09-06T22:57:35.008Z,101596.16
2023-09-06T23:00:07.824Z,101594.72
2023-09-06T23:02:37.599Z,101604.91
2023-09-06T23:05:10.452Z,101599.88
2023-09-06T23:07:40.407Z,101596.16
2023-09-06T23:10:16.015Z,101602.97
2023-09-06T23:12:48.879Z,101601.53
2023-09-06T23:15:18.591Z,101600.69
2023-09-06T23:17:50.588Z,101596.13
2023-09-06T23:20:27.451Z,101596.63
2023-09-06T23:22:59.722Z,101605.50
2023-09-06T23:25:37.637Z,101606.34
2023-09-06T23:28:16.504Z,101602.28
2023-09-06T23:30:50.689Z,101609.44
2023-09-06T23:33:26.185Z,101609.69
2023-09-06T23:35:55.801Z,101607.63
2023-09-06T23:38:25.685Z,101604.50
2023-09-06T23:41:01.210Z,101591.81
2023-09-06T23:43:32.665Z,101586.63
2023-09-06T23:46:02.544Z,101599.56
2023-09-06T23:48:32.813Z,101591.19
2023-09-06T23:51:03.142Z,101586.63
2023-09-06T23:53:32.763Z,101591.16
2023-09-06T23:56:07.227Z,101583.97
2023-09-06T23:58:36.836Z,101587.19
